TimeCDT,TemperatureF,Dew PointF,Humidity,Sea Level PressureIn,VisibilityMPH,Wind Direction,Wind SpeedMPH,Gust SpeedMPH,PrecipitationIn,Events,Conditions,WindDirDegrees,DateUTC
12:53 AM,37.9,28.9,70,30.32,10.0,ESE,3.5,-,N/A,,Overcast,120,2012-10-28 05:53:00
1:53 AM,37.0,28.0,70,30.31,10.0,ESE,3.5,-,N/A,,Overcast,110,2012-10-28 06:53:00
2:53 AM,34.0,28.0,79,30.30,10.0,ESE,3.5,-,N/A,,Clear,120,2012-10-28 07:53:00
3:53 AM,32.0,27.0,82,30.30,10.0,SE,3.5,-,N/A,,Clear,130,2012-10-28 08:53:00
4:53 AM,27.0,23.0,85,30.32,10.0,Calm,Calm,-,N/A,,Clear,0,2012-10-28 09:53:00
5:53 AM,28.0,24.1,85,30.32,10.0,Calm,Calm,-,N/A,,Clear,0,2012-10-28 10:53:00
6:53 AM,26.1,23.0,88,30.33,10.0,Calm,Calm,-,N/A,,Clear,0,2012-10-28 11:53:00
7:53 AM,27.0,21.9,81,30.35,10.0,Calm,Calm,-,N/A,,Clear,0,2012-10-28 12:53:00
8:53 AM,30.0,27.0,88,30.37,10.0,Calm,Calm,-,N/A,,Clear,0,2012-10-28 13:53:00
9:53 AM,37.9,30.9,76,30.37,10.0,Calm,Calm,-,N/A,,Clear,0,2012-10-28 14:53:00
10:53 AM,43.0,28.0,56,30.36,10.0,SSE,4.6,-,N/A,,Clear,150,2012-10-28 15:53:00
11:53 AM,46.0,28.9,51,30.35,10.0,South,5.8,-,N/A,,Clear,170,2012-10-28 16:53:00
12:53 PM,48.9,28.9,46,30.32,10.0,SSE,9.2,-,N/A,,Clear,160,2012-10-28 17:53:00
1:53 PM,50.0,28.0,43,30.30,10.0,Variable,4.6,-,N/A,,Clear,0,2012-10-28 18:53:00
2:53 PM,53.1,27.0,37,30.27,10.0,SSE,4.6,-,N/A,,Clear,150,2012-10-28 19:53:00
3:53 PM,53.1,26.1,35,30.25,10.0,Variable,3.5,-,N/A,,Clear,0,2012-10-28 20:53:00
4:53 PM,53.1,26.1,35,30.26,10.0,SSE,3.5,-,N/A,,Clear,160,2012-10-28 21:53:00
5:53 PM,50.0,27.0,41,30.25,10.0,SE,4.6,-,N/A,,Clear,130,2012-10-28 22:53:00
6:53 PM,46.0,27.0,47,30.26,10.0,East,4.6,-,N/A,,Clear,100,2012-10-28 23:53:00
7:53 PM,43.0,28.0,56,30.27,10.0,ESE,5.8,-,N/A,,Overcast,110,2012-10-29 00:53:00
8:53 PM,43.0,28.9,58,30.27,10.0,ESE,5.8,-,N/A,,Overcast,110,2012-10-29 01:53:00
9:53 PM,43.0,28.9,58,30.27,10.0,ESE,5.8,-,N/A,,Overcast,120,2012-10-29 02:53:00
10:53 PM,43.0,30.0,60,30.28,10.0,SE,5.8,-,N/A,,Overcast,130,2012-10-29 03:53:00
11:53 PM,42.1,30.0,62,30.27,10.0,SE,5.8,-,N/A,,Overcast,130,2012-10-29 04:53:00